Time;durP1;ratioP1;P1;durP2;ratioP2;P2;SDS_P1;SDS_P2;PMS_P1;PMS_P2;Temp;Humidity;BMP_temperature;BMP_pressure;BME280_temperature;BME280_humidity;BME280_pressure;Samples;Min_cycle;Max_cycle;Signal;HPM_P1;HPM_P2
2022/05/25 00:01:04;;;;;;;2.37;0.90;;;16.20;98.20;;;;;;5009961;28;20214;-56
2022/05/25 00:03:32;;;;;;;1.10;0.80;;;16.20;98.80;;;;;;5011688;28;20188;-55
2022/05/25 00:06:01;;;;;;;1.80;1.13;;;16.00;98.30;;;;;;5011658;28;20352;-57
2022/05/25 00:08:27;;;;;;;1.23;1.10;;;16.10;98.30;;;;;;5011972;28;20294;-56
2022/05/25 00:10:53;;;;;;;3.05;1.33;;;16.00;98.50;;;;;;5010821;28;20183;-56
2022/05/25 00:13:19;;;;;;;1.53;0.90;;;16.30;98.70;;;;;;5013262;28;20193;-56
2022/05/25 00:15:45;;;;;;;4.03;1.07;;;16.00;98.60;;;;;;5013637;28;20186;-57
2022/05/25 00:18:10;;;;;;;1.20;1.10;;;15.80;98.60;;;;;;5010034;28;20477;-56
2022/05/25 00:20:36;;;;;;;2.20;1.00;;;16.00;98.70;;;;;;5010237;28;20183;-56
2022/05/25 00:23:02;;;;;;;3.27;1.10;;;16.20;98.80;;;;;;5011888;28;20546;-57
2022/05/25 00:25:33;;;;;;;1.08;0.98;;;16.10;99.00;;;;;;5010575;28;20210;-56
2022/05/25 00:28:00;;;;;;;1.33;1.23;;;16.00;99.20;;;;;;5010688;28;20235;-57
2022/05/25 00:30:27;;;;;;;1.40;1.30;;;16.10;99.30;;;;;;5010855;28;20193;-55
2022/05/25 00:32:57;;;;;;;1.88;0.90;;;15.90;99.20;;;;;;5011439;28;20266;-57
2022/05/25 00:35:25;;;;;;;2.55;1.00;;;15.90;99.70;;;;;;5011248;28;20687;-57
2022/05/25 00:37:50;;;;;;;1.20;0.98;;;16.10;99.40;;;;;;5008098;28;20215;-56
2022/05/25 00:40:26;;;;;;;1.47;1.00;;;16.10;99.10;;;;;;5010376;28;20179;-56
2022/05/25 00:42:52;;;;;;;1.83;1.00;;;15.90;98.90;;;;;;5010921;28;20445;-56
2022/05/25 00:45:18;;;;;;;1.30;1.20;;;16.10;98.90;;;;;;5010553;28;20569;-57
2022/05/25 00:47:47;;;;;;;1.00;0.90;;;16.10;98.50;;;;;;5010012;28;20202;-57
2022/05/25 00:50:16;;;;;;;1.00;1.00;;;16.30;98.30;;;;;;5004452;28;20434;-56
2022/05/25 00:52:43;;;;;;;2.00;1.00;;;16.20;97.50;;;;;;5010096;28;20175;-57
2022/05/25 00:55:13;;;;;;;1.00;1.00;;;16.20;97.10;;;;;;5011156;28;20194;-57
2022/05/25 00:57:43;;;;;;;3.78;1.10;;;16.20;97.00;;;;;;5009544;28;20273;-57
2022/05/25 01:00:20;;;;;;;0.80;0.80;;;16.00;96.80;;;;;;5009575;28;20183;-57
2022/05/25 01:03:10;;;;;;;1.42;1.00;;;16.10;97.30;;;;;;5008999;28;20242;-56
2022/05/25 01:05:52;;;;;;;1.00;0.90;;;16.00;97.90;;;;;;5010230;28;20289;-57
2022/05/25 01:08:33;;;;;;;2.88;1.50;;;16.00;96.90;;;;;;5003798;28;20209;-57
2022/05/25 01:11:17;;;;;;;0.90;0.80;;;16.10;96.60;;;;;;5010780;28;20174;-54
2022/05/25 01:13:52;;;;;;;0.98;0.88;;;16.00;96.20;;;;;;5010854;28;20270;-54
2022/05/25 01:17:10;;;;;;;1.10;1.00;;;16.10;96.20;;;;;;5010072;28;20276;-55
2022/05/25 01:19:54;;;;;;;1.00;0.90;;;16.00;96.40;;;;;;4994944;28;20576;-55
2022/05/25 01:22:44;;;;;;;0.80;0.80;;;16.10;96.70;;;;;;5006248;28;20198;-55
2022/05/25 01:25:26;;;;;;;0.90;0.80;;;16.10;96.80;;;;;;5009522;28;20230;-54
2022/05/25 01:27:53;;;;;;;0.95;0.85;;;16.00;96.50;;;;;;5008539;28;20206;-55
2022/05/25 01:30:36;;;;;;;1.15;0.90;;;16.00;96.20;;;;;;5004138;28;20648;-55
2022/05/25 01:33:20;;;;;;;1.20;1.00;;;16.20;95.90;;;;;;5007658;28;20205;-56
2022/05/25 01:36:01;;;;;;;1.40;0.98;;;16.10;96.20;;;;;;5010639;28;20539;-54
2022/05/25 01:38:38;;;;;;;1.75;0.90;;;16.20;96.10;;;;;;5008990;28;20799;-55
2022/05/25 01:41:27;;;;;;;1.92;1.00;;;16.20;95.80;;;;;;5009798;28;20233;-56
2022/05/25 01:44:01;;;;;;;0.98;0.88;;;16.40;95.60;;;;;;5010637;28;20183;-56
2022/05/25 01:46:53;;;;;;;0.90;0.90;;;16.00;95.60;;;;;;5009433;28;20210;-56
2022/05/25 01:49:23;;;;;;;0.90;0.80;;;16.10;95.80;;;;;;5014285;28;20578;-55
2022/05/25 01:52:05;;;;;;;4.72;1.10;;;16.20;95.90;;;;;;5013738;28;20175;-57
2022/05/25 01:54:34;;;;;;;1.05;0.95;;;16.00;96.10;;;;;;5013962;28;20182;-56
2022/05/25 01:57:08;;;;;;;1.20;1.10;;;15.90;96.60;;;;;;5012856;28;20839;-56
2022/05/25 01:59:33;;;;;;;1.65;1.00;;;15.80;97.00;;;;;;5011117;28;20218;-57
2022/05/25 02:04:50;;;;;;;1.00;0.90;;;15.80;97.50;;;;;;5014658;28;20193;-57
2022/05/25 02:07:34;;;;;;;1.40;1.30;;;15.60;97.50;;;;;;5012773;28;20241;-56
2022/05/25 02:10:27;;;;;;;1.25;1.15;;;15.70;98.20;;;;;;5013071;28;20179;-56
2022/05/25 02:13:13;;;;;;;0.90;0.90;;;15.60;98.40;;;;;;5013189;28;20175;-56
2022/05/25 02:15:44;;;;;;;1.27;0.95;;;15.70;98.60;;;;;;5021181;28;20596;-56
2022/05/25 02:18:22;;;;;;;1.80;1.13;;;15.50;98.30;;;;;;5012189;28;20672;-56
2022/05/25 02:20:56;;;;;;;1.25;0.93;;;15.90;98.20;;;;;;5011605;28;20908;-56
2022/05/25 02:23:52;;;;;;;1.20;1.10;;;15.60;98.20;;;;;;5013450;28;20195;-56
2022/05/25 02:26:34;;;;;;;1.55;0.90;;;15.70;97.90;;;;;;5010740;28;20235;-56
2022/05/25 02:29:23;;;;;;;2.65;1.00;;;15.60;97.80;;;;;;5013536;28;20264;-57
2022/05/25 02:32:12;;;;;;;0.80;0.80;;;15.70;98.20;;;;;;5025936;28;20640;-57
2022/05/25 02:34:41;;;;;;;1.00;0.80;;;15.50;97.70;;;;;;5013828;28;20210;-56
2022/05/25 02:37:08;;;;;;;1.17;1.05;;;15.40;97.60;;;;;;5012773;28;20183;-57
2022/05/25 02:39:34;;;;;;;1.30;0.90;;;15.20;97.70;;;;;;5011022;28;20203;-56
2022/05/25 02:41:59;;;;;;;1.30;1.10;;;15.50;97.00;;;;;;5012964;28;20193;-56
2022/05/25 02:44:25;;;;;;;0.83;0.83;;;15.40;97.00;;;;;;5013507;28;20213;-56
2022/05/25 02:46:52;;;;;;;1.10;1.00;;;15.40;97.30;;;;;;5012394;28;20679;-56
2022/05/25 02:49:18;;;;;;;1.30;1.20;;;15.20;97.60;;;;;;5012979;28;20450;-57
2022/05/25 02:51:45;;;;;;;1.45;1.10;;;15.20;98.00;;;;;;5013072;28;20265;-58
2022/05/25 02:54:10;;;;;;;0.93;0.82;;;15.40;97.90;;;;;;5013154;28;20183;-57
2022/05/25 02:56:37;;;;;;;2.17;0.90;;;15.40;97.90;;;;;;5011541;28;20203;-57
2022/05/25 02:59:03;;;;;;;1.58;1.00;;;15.40;97.70;;;;;;5011696;28;20220;-56
2022/05/25 03:01:29;;;;;;;2.90;1.20;;;15.20;97.60;;;;;;5007974;28;20596;-58
2022/05/25 03:03:55;;;;;;;1.40;1.10;;;15.10;98.40;;;;;;5012509;28;20457;-57
2022/05/25 03:06:21;;;;;;;0.90;0.80;;;15.40;97.60;;;;;;5011694;28;20256;-57
2022/05/25 03:08:47;;;;;;;1.05;1.05;;;15.10;97.10;;;;;;5005766;28;20458;-56
2022/05/25 03:11:13;;;;;;;3.37;1.00;;;15.20;97.10;;;;;;5012931;28;20603;-56
2022/05/25 03:13:39;;;;;;;4.23;1.20;;;15.30;96.50;;;;;;5012654;28;20992;-56
2022/05/25 03:16:07;;;;;;;1.00;0.90;;;15.30;96.30;;;;;;5011912;28;20480;-55
2022/05/25 03:18:34;;;;;;;1.88;0.90;;;15.40;96.20;;;;;;5012099;28;20210;-56
2022/05/25 03:20:59;;;;;;;0.85;0.85;;;15.30;96.10;;;;;;5009193;28;20195;-56
2022/05/25 03:23:25;;;;;;;0.80;0.80;;;15.40;96.00;;;;;;5011535;28;20683;-55
2022/05/25 03:25:51;;;;;;;1.40;0.83;;;15.60;96.00;;;;;;5012664;28;20737;-55
2022/05/25 03:28:17;;;;;;;1.00;0.90;;;15.30;96.00;;;;;;5011371;28;20205;-58
2022/05/25 03:30:45;;;;;;;0.88;0.88;;;15.70;96.50;;;;;;5008791;28;20590;-56
2022/05/25 03:33:11;;;;;;;1.55;1.25;;;15.20;96.30;;;;;;5009150;28;20590;-57
2022/05/25 03:35:37;;;;;;;0.90;0.90;;;15.10;96.10;;;;;;5012688;28;20187;-57
2022/05/25 03:38:04;;;;;;;1.15;1.00;;;15.30;95.60;;;;;;5010054;28;20581;-57
2022/05/25 03:40:30;;;;;;;1.40;1.30;;;15.30;95.20;;;;;;5007479;28;20193;-57
2022/05/25 03:42:55;;;;;;;1.43;1.33;;;15.40;94.90;;;;;;5011595;28;20203;-56
2022/05/25 03:45:21;;;;;;;1.37;0.80;;;15.50;94.90;;;;;;5008655;28;20238;-57
2022/05/25 03:47:47;;;;;;;1.00;0.90;;;15.00;94.80;;;;;;5008187;28;20274;-59
2022/05/25 03:50:12;;;;;;;1.27;0.90;;;15.10;95.20;;;;;;5007952;28;20191;-59
2022/05/25 03:52:38;;;;;;;1.20;1.10;;;15.40;95.20;;;;;;5008415;28;20262;-59
2022/05/25 03:55:06;;;;;;;3.88;1.13;;;15.20;95.10;;;;;;5008101;28;20558;-60
2022/05/25 03:57:32;;;;;;;1.90;1.00;;;15.30;95.30;;;;;;5011007;28;20202;-59
2022/05/25 03:59:58;;;;;;;5.00;1.17;;;15.30;95.30;;;;;;5008836;28;20183;-59
2022/05/25 04:02:23;;;;;;;1.47;0.83;;;15.20;95.60;;;;;;5009394;28;20270;-59
2022/05/25 04:05:07;;;;;;;1.37;1.00;;;15.30;96.00;;;;;;5010218;28;20442;-59
2022/05/25 04:07:37;;;;;;;1.33;1.15;;;15.10;95.80;;;;;;5022178;28;20278;-59
2022/05/25 04:10:05;;;;;;;3.00;1.20;;;14.90;96.00;;;;;;5009583;28;20253;-59
2022/05/25 04:12:31;;;;;;;1.17;1.00;;;15.00;96.40;;;;;;5011779;28;20183;-58
2022/05/25 04:14:58;;;;;;;0.88;0.88;;;15.00;96.10;;;;;;5006936;28;20187;-59
2022/05/25 04:17:23;;;;;;;1.33;1.15;;;15.00;96.10;;;;;;5009508;28;20187;-59
2022/05/25 04:19:50;;;;;;;0.90;0.90;;;15.00;96.00;;;;;;5010128;28;20193;-59
2022/05/25 04:22:16;;;;;;;1.10;0.98;;;14.90;96.20;;;;;;5011632;28;20186;-59
2022/05/25 04:24:42;;;;;;;1.52;1.42;;;15.00;96.50;;;;;;5010575;28;20225;-59
2022/05/25 04:27:08;;;;;;;1.17;1.07;;;15.30;97.00;;;;;;5010454;28;20569;-59
2022/05/25 04:29:36;;;;;;;1.13;1.03;;;15.00;97.30;;;;;;5010970;28;20202;-59
2022/05/25 04:32:03;;;;;;;1.23;0.90;;;15.00;97.50;;;;;;5003292;28;20236;-59
2022/05/25 04:34:29;;;;;;;1.15;1.05;;;14.80;97.20;;;;;;5005482;28;20660;-59
2022/05/25 04:36:55;;;;;;;1.87;1.13;;;14.80;97.40;;;;;;5008520;28;20285;-59
2022/05/25 04:39:20;;;;;;;1.20;1.10;;;15.10;97.70;;;;;;5009818;28;20218;-59
2022/05/25 04:41:46;;;;;;;1.80;1.30;;;14.50;98.30;;;;;;5010691;28;20194;-59
2022/05/25 04:44:12;;;;;;;1.20;1.10;;;14.80;97.90;;;;;;5009417;28;20212;-59
2022/05/25 04:46:37;;;;;;;2.20;1.40;;;15.00;98.20;;;;;;5008528;28;20695;-59
2022/05/25 04:49:03;;;;;;;1.33;1.23;;;14.80;98.20;;;;;;5008805;28;22358;-59
2022/05/25 04:51:29;;;;;;;3.23;1.27;;;14.90;98.30;;;;;;5010010;28;20186;-59
2022/05/25 04:53:54;;;;;;;1.53;1.17;;;14.90;98.40;;;;;;5007461;28;20580;-59
2022/05/25 04:59:04;;;;;;;4.28;1.10;;;15.20;99.50;;;;;;5009799;28;20294;-61
2022/05/25 05:01:31;;;;;;;5.33;1.20;;;15.30;98.60;;;;;;5007523;28;20191;-59
2022/05/25 05:03:56;;;;;;;1.50;1.20;;;15.20;98.40;;;;;;5004714;28;20221;-59
2022/05/25 05:06:22;;;;;;;1.60;1.50;;;14.90;98.10;;;;;;5007207;28;20243;-58
2022/05/25 05:08:47;;;;;;;1.03;1.00;;;15.20;98.30;;;;;;5008509;28;20680;-57
2022/05/25 05:11:18;;;;;;;1.10;0.90;;;15.10;98.10;;;;;;5010173;28;20183;-58
2022/05/25 05:13:44;;;;;;;1.55;1.00;;;15.60;97.50;;;;;;5004206;28;20206;-58
2022/05/25 05:16:13;;;;;;;1.25;0.90;;;15.40;97.30;;;;;;5007001;28;20187;-59
2022/05/25 05:18:40;;;;;;;1.10;1.00;;;15.70;96.50;;;;;;5004663;28;20199;-60
2022/05/25 05:21:09;;;;;;;1.10;1.10;;;15.70;96.60;;;;;;5003078;28;20182;-57
2022/05/25 05:23:37;;;;;;;2.55;1.05;;;15.70;96.50;;;;;;5013431;28;20189;-57
2022/05/25 05:26:03;;;;;;;1.25;1.00;;;15.60;96.50;;;;;;5012447;28;20205;-58
2022/05/25 05:28:32;;;;;;;6.10;1.65;;;15.60;96.80;;;;;;5006472;28;20203;-59
2022/05/25 05:30:59;;;;;;;1.30;1.13;;;15.40;96.60;;;;;;5004531;28;20702;-64
2022/05/25 05:33:26;;;;;;;2.47;1.80;;;15.50;96.90;;;;;;5006255;28;20736;-66
2022/05/25 05:36:00;;;;;;;5.28;1.10;;;15.70;96.70;;;;;;5006076;28;20194;-64
2022/05/25 05:38:28;;;;;;;4.45;1.10;;;15.90;96.50;;;;;;5006865;28;20243;-69
2022/05/25 05:40:54;;;;;;;1.60;1.25;;;15.80;95.20;;;;;;5006695;28;20207;-69
2022/05/25 05:43:20;;;;;;;1.90;1.52;;;16.20;95.50;;;;;;5010804;28;20738;-59
2022/05/25 05:45:46;;;;;;;2.10;1.40;;;16.10;95.10;;;;;;5005249;28;20250;-60
2022/05/25 05:48:20;;;;;;;1.95;1.27;;;15.70;95.20;;;;;;5003797;28;20194;-60
2022/05/25 05:50:49;;;;;;;1.33;1.20;;;15.70;95.20;;;;;;5007015;28;20202;-60
2022/05/25 05:53:15;;;;;;;2.08;1.20;;;15.70;95.30;;;;;;5010706;28;20253;-60
2022/05/25 05:55:43;;;;;;;1.55;1.15;;;16.20;95.70;;;;;;5000823;28;20195;-57
2022/05/25 05:58:09;;;;;;;4.70;1.50;;;16.30;95.50;;;;;;5007788;28;20214;-57
2022/05/25 06:00:36;;;;;;;1.63;1.20;;;16.10;95.60;;;;;;5005338;28;20182;-57
2022/05/25 06:03:02;;;;;;;2.00;1.30;;;16.40;95.40;;;;;;5001895;28;20194;-59
2022/05/25 06:05:28;;;;;;;3.33;1.53;;;16.50;94.80;;;;;;5009306;28;20211;-61
2022/05/25 06:07:53;;;;;;;3.47;1.33;;;16.80;94.50;;;;;;5007257;28;20584;-61
2022/05/25 06:10:19;;;;;;;3.43;1.57;;;17.00;93.60;;;;;;5009958;28;20181;-58
2022/05/25 06:12:47;;;;;;;0.97;0.90;;;17.20;93.20;;;;;;5016516;28;20321;-58
2022/05/25 06:20:41;;;;;;;1.85;0.93;;;18.00;91.50;;;;;;5013816;28;20290;-58
2022/05/25 06:23:07;;;;;;;3.00;1.30;;;18.00;90.90;;;;;;5016556;28;20715;-57
2022/05/25 06:25:32;;;;;;;3.03;1.77;;;18.00;89.50;;;;;;5009590;28;20718;-59
2022/05/25 06:27:58;;;;;;;2.87;1.37;;;18.10;89.60;;;;;;5009053;28;20298;-59
2022/05/25 06:30:24;;;;;;;14.57;10.20;;;18.20;89.80;;;;;;5002270;28;20199;-60
2022/05/25 06:32:50;;;;;;;1.80;1.20;;;18.10;89.40;;;;;;5003169;28;20194;-66
2022/05/25 06:35:16;;;;;;;1.52;1.30;;;18.30;87.90;;;;;;5008872;28;20205;-63
2022/05/25 06:37:41;;;;;;;2.17;1.30;;;18.40;87.60;;;;;;5009938;28;20215;-65
2022/05/25 06:40:08;;;;;;;2.27;1.90;;;18.40;86.90;;;;;;5012823;28;20228;-63
2022/05/25 06:42:36;;;;;;;2.60;1.40;;;18.50;87.80;;;;;;5004808;28;20198;-63
2022/05/25 06:45:01;;;;;;;4.45;1.45;;;18.60;87.00;;;;;;5005324;28;20255;-63
2022/05/25 06:47:27;;;;;;;1.30;1.00;;;18.60;86.50;;;;;;5010036;28;20293;-63
2022/05/25 06:49:54;;;;;;;3.63;1.42;;;18.90;86.10;;;;;;5011709;28;20187;-62
2022/05/25 06:52:21;;;;;;;1.63;1.50;;;18.90;85.40;;;;;;5010874;28;20191;-63
2022/05/25 06:54:52;;;;;;;3.40;1.35;;;19.00;85.90;;;;;;5009871;28;20233;-65
2022/05/25 06:57:17;;;;;;;1.40;1.30;;;19.00;84.30;;;;;;5006772;28;20218;-62
2022/05/25 06:59:43;;;;;;;2.37;1.70;;;19.20;85.50;;;;;;5011193;28;20249;-64
2022/05/25 07:02:09;;;;;;;2.60;1.40;;;19.40;84.50;;;;;;5010648;28;20193;-56
2022/05/25 07:04:34;;;;;;;3.50;1.60;;;19.20;86.30;;;;;;5011638;28;20187;-61
2022/05/25 07:07:04;;;;;;;2.30;1.33;;;19.30;84.80;;;;;;5010123;28;20425;-61
2022/05/25 07:09:33;;;;;;;2.90;1.43;;;20.40;84.60;;;;;;5007582;28;20234;-62
2022/05/25 07:11:59;;;;;;;1.67;1.40;;;22.30;79.10;;;;;;5011661;28;20434;-63
2022/05/25 07:14:25;;;;;;;2.50;1.80;;;24.80;70.90;;;;;;5012206;28;21156;-62
2022/05/25 07:16:51;;;;;;;1.20;1.10;;;27.00;62.30;;;;;;5009757;28;20190;-60
2022/05/25 07:19:17;;;;;;;2.03;1.23;;;29.10;56.80;;;;;;5009984;28;20547;-60
2022/05/25 07:21:43;;;;;;;1.20;1.03;;;29.80;53.30;;;;;;5009334;28;20195;-59
2022/05/25 07:24:09;;;;;;;1.87;1.23;;;31.20;49.60;;;;;;5011602;28;20465;-61
2022/05/25 07:26:34;;;;;;;1.57;0.90;;;31.00;48.10;;;;;;5008992;28;20215;-60
2022/05/25 07:29:01;;;;;;;1.80;1.10;;;30.50;47.10;;;;;;5007972;28;20483;-65
2022/05/25 07:31:38;;;;;;;1.50;1.40;;;31.80;46.50;;;;;;5006698;28;20266;-63
2022/05/25 07:34:16;;;;;;;1.87;1.37;;;30.60;44.20;;;;;;5005112;28;20531;-64
2022/05/25 07:36:46;;;;;;;3.17;1.60;;;32.10;44.20;;;;;;5009831;28;20445;-65
2022/05/25 07:39:14;;;;;;;1.77;1.40;;;32.50;41.50;;;;;;5009164;28;20461;-65
2022/05/25 07:41:48;;;;;;;2.53;1.60;;;31.50;41.50;;;;;;5008177;28;20453;-66
2022/05/25 07:44:20;;;;;;;2.30;1.20;;;30.70;43.80;;;;;;5008840;28;20441;-66
2022/05/25 07:46:46;;;;;;;2.53;1.17;;;32.20;42.10;;;;;;5005310;28;20926;-67
2022/05/25 07:49:12;;;;;;;1.70;1.23;;;31.80;41.30;;;;;;5008778;28;20473;-64
2022/05/25 07:51:38;;;;;;;2.27;1.23;;;28.50;44.00;;;;;;5004956;28;20275;-66
2022/05/25 07:54:03;;;;;;;1.97;1.20;;;26.90;47.80;;;;;;5009799;28;20203;-62
2022/05/25 07:56:32;;;;;;;2.03;1.70;;;28.70;47.40;;;;;;5009066;28;20198;-63
2022/05/25 07:59:04;;;;;;;1.60;1.50;;;28.40;46.70;;;;;;5010426;28;20696;-67
2022/05/25 08:07:14;;;;;;;2.83;1.50;;;26.20;51.10;;;;;;5008452;28;21029;-69
2022/05/25 08:09:40;;;;;;;1.37;1.10;;;25.80;51.70;;;;;;5012581;28;20501;-68
2022/05/25 08:12:08;;;;;;;3.77;1.30;;;25.50;52.10;;;;;;5010486;28;20481;-68
2022/05/25 08:14:33;;;;;;;2.90;1.17;;;25.60;51.50;;;;;;5005376;28;20273;-67
2022/05/25 08:16:59;;;;;;;1.40;1.30;;;26.30;50.30;;;;;;5008256;28;20451;-63
2022/05/25 08:19:25;;;;;;;1.40;1.30;;;27.80;48.50;;;;;;5002411;28;20215;-65
2022/05/25 08:21:54;;;;;;;1.50;1.10;;;28.60;47.50;;;;;;5004380;28;20184;-64
2022/05/25 08:24:20;;;;;;;3.53;1.27;;;29.50;45.80;;;;;;5005971;28;20950;-65
2022/05/25 08:26:45;;;;;;;1.40;1.30;;;30.90;43.80;;;;;;5010134;28;20485;-64
2022/05/25 08:29:12;;;;;;;2.13;1.13;;;32.90;41.30;;;;;;5009314;28;20559;-67
2022/05/25 08:31:38;;;;;;;2.30;1.37;;;33.20;39.60;;;;;;5009913;28;20190;-67
2022/05/25 08:34:05;;;;;;;1.67;1.43;;;31.90;40.00;;;;;;5007970;28;20459;-66
2022/05/25 08:36:32;;;;;;;1.37;1.10;;;31.20;41.00;;;;;;5009437;28;20450;-67
2022/05/25 08:38:58;;;;;;;1.87;1.20;;;30.00;40.70;;;;;;5008923;28;20560;-66
2022/05/25 08:41:28;;;;;;;5.17;1.17;;;29.40;43.50;;;;;;5003339;28;20983;-67
2022/05/25 08:43:55;;;;;;;1.53;1.00;;;30.80;41.90;;;;;;5007373;28;20688;-71
2022/05/25 08:46:24;;;;;;;1.00;0.90;;;31.00;40.80;;;;;;5006029;28;20475;-70
2022/05/25 08:48:50;;;;;;;1.97;1.07;;;31.40;39.90;;;;;;4996807;28;20469;-71
2022/05/25 08:51:19;;;;;;;1.33;1.23;;;33.60;38.00;;;;;;4994384;28;20446;-73
2022/05/25 08:53:45;;;;;;;2.10;1.93;;;32.40;38.00;;;;;;5008859;28;20497;-69
2022/05/25 08:56:29;;;;;;;2.20;1.27;;;30.50;39.30;;;;;;5022006;28;20462;-73
2022/05/25 08:59:06;;;;;;;2.23;1.00;;;29.30;41.20;;;;;;5011283;28;20512;-70
2022/05/25 09:01:41;;;;;;;1.67;1.50;;;30.10;42.10;;;;;;5002744;28;20483;-67
2022/05/25 09:04:32;;;;;;;3.73;1.10;;;31.90;40.30;;;;;;5002130;28;20444;-70
2022/05/25 09:07:27;;;;;;;1.87;1.10;;;32.30;39.20;;;;;;5001148;28;20475;-71
2022/05/25 09:09:53;;;;;;;1.90;1.40;;;31.80;39.50;;;;;;5013065;28;20450;-68
2022/05/25 09:12:24;;;;;;;1.30;1.00;;;29.90;41.10;;;;;;5005100;28;20927;-64
2022/05/25 09:14:58;;;;;;;2.33;1.73;;;28.20;42.70;;;;;;5008732;28;20460;-67
2022/05/25 09:17:34;;;;;;;2.10;1.77;;;27.40;44.90;;;;;;5007859;28;20460;-66
2022/05/25 09:20:00;;;;;;;2.17;1.73;;;27.30;45.80;;;;;;5002172;28;20931;-66
2022/05/25 09:22:26;;;;;;;3.97;2.23;;;28.50;44.20;;;;;;5008740;28;20445;-66
2022/05/25 09:24:55;;;;;;;2.80;1.30;;;28.80;42.30;;;;;;5004486;28;20449;-66
2022/05/25 09:27:26;;;;;;;1.50;1.30;;;28.10;43.10;;;;;;5009539;28;20976;-67
2022/05/25 09:29:58;;;;;;;1.43;1.07;;;27.30;44.30;;;;;;5005233;28;20818;-69
2022/05/25 09:33:02;;;;;;;2.13;1.10;;;27.50;43.80;;;;;;5007870;28;20450;-68
2022/05/25 09:35:36;;;;;;;3.93;1.67;;;26.50;44.10;;;;;;5003820;28;20579;-68
2022/05/25 09:38:28;;;;;;;2.20;0.80;;;25.90;46.00;;;;;;5004140;28;20566;-69
2022/05/25 09:40:53;;;;;;;1.70;1.33;;;25.40;46.50;;;;;;5008636;28;20478;-69
2022/05/25 09:43:24;;;;;;;1.73;1.47;;;24.80;46.80;;;;;;5007843;28;20868;-67
2022/05/25 09:45:52;;;;;;;1.70;1.40;;;24.10;47.60;;;;;;5007535;28;20606;-65
2022/05/25 09:48:24;;;;;;;1.83;1.10;;;23.80;48.90;;;;;;5007663;28;20465;-65
2022/05/25 09:50:54;;;;;;;1.43;1.33;;;23.40;48.90;;;;;;5006772;28;20529;-65
2022/05/25 09:53:23;;;;;;;1.00;0.90;;;23.50;49.60;;;;;;5007790;28;20475;-66
2022/05/25 09:56:06;;;;;;;3.10;1.10;;;25.00;49.60;;;;;;5009668;28;20526;-72
2022/05/25 09:58:42;;;;;;;4.63;1.17;;;26.40;46.80;;;;;;5009120;28;20476;-67
2022/05/25 10:01:20;;;;;;;1.07;0.97;;;28.60;44.30;;;;;;5004110;28;20459;-65
2022/05/25 10:03:46;;;;;;;1.53;1.00;;;30.90;41.10;;;;;;5007357;28;20484;-66
2022/05/25 10:06:20;;;;;;;1.53;1.00;;;30.20;39.70;;;;;;5009357;28;20513;-69
2022/05/25 10:08:50;;;;;;;2.00;1.20;;;29.30;40.60;;;;;;5011467;28;20467;-65
2022/05/25 10:11:31;;;;;;;2.97;1.40;;;29.20;41.40;;;;;;5012175;28;20974;-63
2022/05/25 10:14:34;;;;;;;1.47;1.03;;;29.10;40.80;;;;;;4999584;28;20445;-63
2022/05/25 10:17:28;;;;;;;1.20;1.10;;;30.10;39.10;;;;;;5011370;28;20473;-63
2022/05/25 10:19:56;;;;;;;1.40;1.13;;;30.90;38.70;;;;;;5005255;28;20475;-64
2022/05/25 10:22:42;;;;;;;1.40;0.87;;;30.20;40.10;;;;;;5010765;28;21037;-60
2022/05/25 10:25:25;;;;;;;1.60;1.47;;;30.70;40.40;;;;;;5005240;28;20433;-71
2022/05/25 10:27:52;;;;;;;1.20;1.10;;;30.60;40.10;;;;;;5008078;28;20540;-59
2022/05/25 10:36:47;;;;;;;3.03;1.47;;;28.00;41.70;;;;;;5010290;28;20819;-61
2022/05/25 10:39:35;;;;;;;1.30;1.20;;;26.70;44.10;;;;;;5007972;28;20511;-57
2022/05/25 10:42:04;;;;;;;3.50;1.00;;;25.90;45.80;;;;;;5008214;28;20443;-56
2022/05/25 10:44:54;;;;;;;5.40;2.50;;;25.00;46.50;;;;;;5011232;28;20532;-58
2022/05/25 10:47:33;;;;;;;2.90;1.00;;;24.30;47.70;;;;;;5007977;28;20524;-56
2022/05/25 10:50:00;;;;;;;1.40;1.20;;;23.70;48.20;;;;;;5011035;28;21170;-56
2022/05/25 10:52:42;;;;;;;3.87;1.20;;;23.10;49.20;;;;;;5010115;28;20805;-56
2022/05/25 10:55:09;;;;;;;1.90;1.10;;;22.80;50.40;;;;;;5010551;28;20437;-59
2022/05/25 10:57:48;;;;;;;1.10;0.97;;;23.10;50.20;;;;;;5011118;28;20495;-59
2022/05/25 11:00:38;;;;;;;3.40;2.20;;;24.70;48.90;;;;;;5004140;28;20776;-60
2022/05/25 11:03:15;;;;;;;1.40;1.30;;;24.90;47.10;;;;;;5008637;28;20510;-59
2022/05/25 11:05:44;;;;;;;2.60;1.00;;;25.70;46.40;;;;;;5005315;28;20482;-59
2022/05/25 11:08:31;;;;;;;1.43;1.30;;;25.40;47.40;;;;;;5008500;28;20518;-57
2022/05/25 11:11:12;;;;;;;3.43;1.40;;;26.10;45.10;;;;;;5010351;28;20430;-57
2022/05/25 11:13:56;;;;;;;1.37;1.27;;;26.40;45.30;;;;;;5011313;28;20430;-59
2022/05/25 11:16:59;;;;;;;1.83;1.60;;;26.50;44.80;;;;;;5006740;28;20441;-60
2022/05/25 11:20:07;;;;;;;1.20;1.10;;;26.90;43.60;;;;;;5003434;28;20855;-61
2022/05/25 11:22:41;;;;;;;1.50;0.83;;;27.80;42.50;;;;;;5019501;28;20533;-62
2022/05/25 11:25:28;;;;;;;1.27;0.80;;;28.30;41.10;;;;;;5003231;28;20791;-60
2022/05/25 11:28:04;;;;;;;1.10;1.00;;;27.50;42.40;;;;;;5008759;28;20470;-59
2022/05/25 11:30:59;;;;;;;1.00;0.80;;;27.20;43.40;;;;;;5009595;28;20954;-60
2022/05/25 11:33:43;;;;;;;2.43;1.40;;;26.60;45.60;;;;;;5009924;28;20491;-61
2022/05/25 11:36:40;;;;;;;2.30;1.50;;;26.40;45.40;;;;;;5004228;28;20452;-60
2022/05/25 11:39:48;;;;;;;1.67;1.10;;;26.20;45.00;;;;;;5008693;28;20463;-60
2022/05/25 11:42:59;;;;;;;3.50;1.40;;;25.20;46.20;;;;;;5005273;28;20457;-61
2022/05/25 11:45:52;;;;;;;1.93;1.20;;;24.60;47.10;;;;;;5009172;28;20564;-60
2022/05/25 11:48:23;;;;;;;2.97;1.40;;;24.30;47.40;;;;;;5007458;28;20465;-60
2022/05/25 11:51:20;;;;;;;4.83;1.20;;;23.80;48.60;;;;;;5010569;28;20476;-59
2022/05/25 11:54:27;;;;;;;1.27;1.10;;;24.20;47.70;;;;;;5010758;28;20837;-63
2022/05/25 11:57:17;;;;;;;2.63;0.83;;;24.20;46.50;;;;;;5010734;28;20547;-55
2022/05/25 12:00:10;;;;;;;1.90;0.90;;;24.00;47.00;;;;;;5006459;28;20504;-56
2022/05/25 12:02:45;;;;;;;1.73;1.50;;;23.80;48.00;;;;;;5010274;28;20453;-61
2022/05/25 12:05:20;;;;;;;2.43;2.17;;;23.50;48.30;;;;;;5003792;28;20445;-64
2022/05/25 12:08:31;;;;;;;1.50;1.30;;;23.20;48.50;;;;;;5010951;28;20473;-63
2022/05/25 12:11:19;;;;;;;2.10;1.10;;;22.90;49.60;;;;;;5006136;28;20803;-58
2022/05/25 12:14:16;;;;;;;2.63;1.10;;;23.10;49.40;;;;;;5008745;28;20444;-59
2022/05/25 12:16:44;;;;;;;2.37;1.27;;;23.20;50.30;;;;;;5006717;28;20950;-64
2022/05/25 12:19:17;;;;;;;1.23;1.10;;;23.20;50.10;;;;;;5004914;28;20794;-61
2022/05/25 12:21:50;;;;;;;2.30;1.63;;;23.30;49.70;;;;;;5006559;28;20450;-62
2022/05/25 12:24:19;;;;;;;1.70;1.53;;;23.40;50.30;;;;;;5008537;28;20450;-64
2022/05/25 12:26:46;;;;;;;2.30;1.60;;;23.40;49.70;;;;;;5003728;28;20561;-62
2022/05/25 12:29:27;;;;;;;2.03;1.30;;;23.50;49.70;;;;;;5011399;28;20544;-61
2022/05/25 12:31:55;;;;;;;1.40;1.10;;;23.70;49.00;;;;;;5008033;28;20472;-68
2022/05/25 12:34:50;;;;;;;2.45;0.90;;;23.60;49.40;;;;;;5007779;28;20449;-66
2022/05/25 12:37:40;;;;;;;1.13;1.03;;;22.80;49.20;;;;;;5007984;28;20183;-66
2022/05/25 12:40:14;;;;;;;1.30;1.20;;;23.60;50.10;;;;;;5004618;28;20446;-62
2022/05/25 12:42:45;;;;;;;1.73;1.20;;;23.60;49.40;;;;;;5010178;28;20460;-68
2022/05/25 12:48:32;;;;;;;1.03;0.93;;;23.40;49.10;;;;;;5006416;28;20489;-64
2022/05/25 12:51:09;;;;;;;1.97;1.47;;;23.20;49.00;;;;;;5009081;28;21233;-61
2022/05/25 12:53:39;;;;;;;1.63;1.03;;;23.20;49.40;;;;;;5006411;28;20469;-64
2022/05/25 12:56:05;;;;;;;1.43;1.10;;;23.10;49.80;;;;;;5006187;28;21002;-64
2022/05/25 12:58:33;;;;;;;1.80;1.00;;;23.10;50.10;;;;;;5009636;28;20469;-61
2022/05/25 13:01:27;;;;;;;1.67;1.20;;;22.80;50.20;;;;;;5007073;28;20441;-62
2022/05/25 13:03:56;;;;;;;1.87;1.27;;;22.90;51.30;;;;;;5008240;28;20485;-63
2022/05/25 13:06:35;;;;;;;2.73;1.80;;;22.90;50.40;;;;;;5016180;28;20505;-63
2022/05/25 13:09:26;;;;;;;2.23;1.70;;;23.00;49.70;;;;;;5018316;28;20465;-63
2022/05/25 13:11:55;;;;;;;1.37;1.20;;;23.10;49.50;;;;;;5008191;28;20433;-62
2022/05/25 13:14:22;;;;;;;1.20;1.10;;;23.10;49.50;;;;;;5009033;28;20449;-62
2022/05/25 13:16:51;;;;;;;1.97;1.20;;;23.20;49.90;;;;;;5007167;28;20439;-62
2022/05/25 13:19:30;;;;;;;2.13;0.90;;;23.00;50.10;;;;;;5023205;28;20552;-61
2022/05/25 13:22:02;;;;;;;1.77;1.10;;;23.30;49.50;;;;;;5010087;28;21181;-61
2022/05/25 13:24:55;;;;;;;1.40;1.17;;;23.40;48.80;;;;;;5010542;28;20442;-60
2022/05/25 13:27:58;;;;;;;5.33;1.57;;;23.30;49.60;;;;;;5004271;28;20470;-62
2022/05/25 13:30:38;;;;;;;2.23;1.00;;;23.30;49.70;;;;;;5006651;28;20441;-60
2022/05/25 13:33:19;;;;;;;1.23;1.07;;;23.30;48.80;;;;;;5010222;28;20433;-61
2022/05/25 13:35:57;;;;;;;1.50;1.10;;;23.00;49.10;;;;;;5009135;28;20494;-67
2022/05/25 13:38:35;;;;;;;3.40;1.77;;;23.30;49.10;;;;;;5003361;28;20461;-70
2022/05/25 13:41:15;;;;;;;7.20;6.70;;;23.40;48.50;;;;;;5009566;28;20503;-71
2022/05/25 13:43:47;;;;;;;2.43;1.07;;;23.60;48.90;;;;;;5008793;28;20455;-62